sensor_id;sensor_type;location;lat;lon;timestamp;P1;durP1;ratioP1;P2;durP2;ratioP2
22644;SDS011;11489;50.834;6.752;2023-06-22T00:00:48;4.85;;;3.05;;
22644;SDS011;11489;50.834;6.752;2023-06-22T00:03:14;6.18;;;2.85;;
22644;SDS011;11489;50.834;6.752;2023-06-22T00:05:40;6.05;;;3.10;;
22644;SDS011;11489;50.834;6.752;2023-06-22T00:08:06;4.15;;;3.22;;
22644;SDS011;11489;50.834;6.752;2023-06-22T00:10:32;4.53;;;3.08;;
22644;SDS011;11489;50.834;6.752;2023-06-22T00:12:57;4.25;;;3.22;;
22644;SDS011;11489;50.834;6.752;2023-06-22T00:15:23;3.85;;;3.08;;
22644;SDS011;11489;50.834;6.752;2023-06-22T00:17:49;4.93;;;2.92;;
22644;SDS011;11489;50.834;6.752;2023-06-22T00:20:16;5.47;;;2.80;;
22644;SDS011;11489;50.834;6.752;2023-06-22T00:22:43;5.97;;;2.88;;
22644;SDS011;11489;50.834;6.752;2023-06-22T00:25:09;3.55;;;2.88;;
22644;SDS011;11489;50.834;6.752;2023-06-22T00:27:35;9.20;;;3.58;;
22644;SDS011;11489;50.834;6.752;2023-06-22T00:30:01;3.63;;;3.17;;
22644;SDS011;11489;50.834;6.752;2023-06-22T00:32:28;3.90;;;2.95;;
22644;SDS011;11489;50.834;6.752;2023-06-22T00:34:54;3.67;;;2.95;;
22644;SDS011;11489;50.834;6.752;2023-06-22T00:37:19;4.32;;;3.00;;
22644;SDS011;11489;50.834;6.752;2023-06-22T00:39:47;5.70;;;3.10;;
22644;SDS011;11489;50.834;6.752;2023-06-22T00:42:13;4.93;;;3.45;;
22644;SDS011;11489;50.834;6.752;2023-06-22T00:44:39;4.00;;;3.38;;
22644;SDS011;11489;50.834;6.752;2023-06-22T00:47:05;6.72;;;3.13;;
22644;SDS011;11489;50.834;6.752;2023-06-22T00:49:32;4.00;;;3.58;;
22644;SDS011;11489;50.834;6.752;2023-06-22T00:51:58;6.13;;;3.22;;
22644;SDS011;11489;50.834;6.752;2023-06-22T00:54:24;6.22;;;3.17;;
22644;SDS011;11489;50.834;6.752;2023-06-22T00:56:53;4.32;;;3.47;;
22644;SDS011;11489;50.834;6.752;2023-06-22T00:59:21;4.55;;;3.42;;
22644;SDS011;11489;50.834;6.752;2023-06-22T01:01:48;5.25;;;3.10;;
22644;SDS011;11489;50.834;6.752;2023-06-22T01:04:13;4.97;;;3.38;;
22644;SDS011;11489;50.834;6.752;2023-06-22T01:07:00;4.40;;;3.58;;
22644;SDS011;11489;50.834;6.752;2023-06-22T01:09:31;4.53;;;3.30;;
22644;SDS011;11489;50.834;6.752;2023-06-22T01:12:01;5.55;;;3.55;;
22644;SDS011;11489;50.834;6.752;2023-06-22T01:15:04;5.57;;;4.10;;
22644;SDS011;11489;50.834;6.752;2023-06-22T01:17:27;4.43;;;3.63;;
22644;SDS011;11489;50.834;6.752;2023-06-22T01:19:54;5.38;;;3.65;;
22644;SDS011;11489;50.834;6.752;2023-06-22T01:22:25;4.35;;;3.45;;
22644;SDS011;11489;50.834;6.752;2023-06-22T01:25:07;4.18;;;3.72;;
22644;SDS011;11489;50.834;6.752;2023-06-22T01:27:47;5.65;;;4.05;;
22644;SDS011;11489;50.834;6.752;2023-06-22T01:30:21;4.28;;;3.63;;
22644;SDS011;11489;50.834;6.752;2023-06-22T01:32:49;4.88;;;3.40;;
22644;SDS011;11489;50.834;6.752;2023-06-22T01:35:16;3.88;;;3.42;;
22644;SDS011;11489;50.834;6.752;2023-06-22T01:37:50;5.20;;;3.60;;
22644;SDS011;11489;50.834;6.752;2023-06-22T01:40:16;4.00;;;3.22;;
22644;SDS011;11489;50.834;6.752;2023-06-22T01:42:42;5.75;;;3.25;;
22644;SDS011;11489;50.834;6.752;2023-06-22T01:45:09;4.32;;;3.70;;
22644;SDS011;11489;50.834;6.752;2023-06-22T01:47:36;7.03;;;3.78;;
22644;SDS011;11489;50.834;6.752;2023-06-22T01:50:02;3.72;;;3.25;;
22644;SDS011;11489;50.834;6.752;2023-06-22T01:52:29;3.97;;;3.47;;
22644;SDS011;11489;50.834;6.752;2023-06-22T01:54:54;5.28;;;3.53;;
22644;SDS011;11489;50.834;6.752;2023-06-22T01:57:22;4.45;;;3.55;;
22644;SDS011;11489;50.834;6.752;2023-06-22T02:00:02;4.88;;;3.95;;
22644;SDS011;11489;50.834;6.752;2023-06-22T02:02:35;5.55;;;3.50;;
22644;SDS011;11489;50.834;6.752;2023-06-22T02:05:08;3.75;;;3.35;;
22644;SDS011;11489;50.834;6.752;2023-06-22T02:07:44;5.25;;;3.33;;
22644;SDS011;11489;50.834;6.752;2023-06-22T02:10:12;3.70;;;3.03;;
22644;SDS011;11489;50.834;6.752;2023-06-22T02:12:40;6.72;;;3.53;;
22644;SDS011;11489;50.834;6.752;2023-06-22T02:15:07;5.53;;;3.72;;
22644;SDS011;11489;50.834;6.752;2023-06-22T02:17:35;5.10;;;3.58;;
22644;SDS011;11489;50.834;6.752;2023-06-22T02:20:02;8.75;;;3.97;;
22644;SDS011;11489;50.834;6.752;2023-06-22T02:22:34;4.93;;;3.42;;
22644;SDS011;11489;50.834;6.752;2023-06-22T02:24:59;5.10;;;3.80;;
22644;SDS011;11489;50.834;6.752;2023-06-22T02:27:25;4.60;;;3.40;;
22644;SDS011;11489;50.834;6.752;2023-06-22T02:29:51;6.78;;;3.70;;
22644;SDS011;11489;50.834;6.752;2023-06-22T02:32:17;4.18;;;3.65;;
22644;SDS011;11489;50.834;6.752;2023-06-22T02:34:43;4.50;;;3.22;;
22644;SDS011;11489;50.834;6.752;2023-06-22T02:37:13;3.95;;;3.45;;
22644;SDS011;11489;50.834;6.752;2023-06-22T02:39:42;4.28;;;3.10;;
22644;SDS011;11489;50.834;6.752;2023-06-22T02:42:08;4.03;;;3.35;;
22644;SDS011;11489;50.834;6.752;2023-06-22T02:44:35;4.53;;;3.28;;
22644;SDS011;11489;50.834;6.752;2023-06-22T02:47:01;4.93;;;3.17;;
22644;SDS011;11489;50.834;6.752;2023-06-22T02:49:27;4.85;;;3.60;;
22644;SDS011;11489;50.834;6.752;2023-06-22T02:51:53;6.78;;;3.80;;
22644;SDS011;11489;50.834;6.752;2023-06-22T02:54:20;4.60;;;3.78;;
22644;SDS011;11489;50.834;6.752;2023-06-22T02:56:46;4.97;;;3.63;;
22644;SDS011;11489;50.834;6.752;2023-06-22T02:59:13;4.45;;;3.60;;
22644;SDS011;11489;50.834;6.752;2023-06-22T03:01:39;3.95;;;3.55;;
22644;SDS011;11489;50.834;6.752;2023-06-22T03:04:07;4.20;;;3.58;;
22644;SDS011;11489;50.834;6.752;2023-06-22T03:06:36;4.03;;;3.42;;
22644;SDS011;11489;50.834;6.752;2023-06-22T03:09:02;4.95;;;4.00;;
22644;SDS011;11489;50.834;6.752;2023-06-22T03:11:33;4.72;;;3.80;;
22644;SDS011;11489;50.834;6.752;2023-06-22T03:13:59;5.35;;;3.65;;
22644;SDS011;11489;50.834;6.752;2023-06-22T03:16:26;4.28;;;3.53;;
22644;SDS011;11489;50.834;6.752;2023-06-22T03:18:52;4.28;;;3.67;;
22644;SDS011;11489;50.834;6.752;2023-06-22T03:21:21;4.05;;;3.40;;
22644;SDS011;11489;50.834;6.752;2023-06-22T03:23:48;4.90;;;3.72;;
22644;SDS011;11489;50.834;6.752;2023-06-22T03:26:17;6.63;;;3.72;;
22644;SDS011;11489;50.834;6.752;2023-06-22T03:28:44;4.43;;;3.50;;
22644;SDS011;11489;50.834;6.752;2023-06-22T03:31:09;5.40;;;4.03;;
22644;SDS011;11489;50.834;6.752;2023-06-22T03:33:35;5.38;;;3.70;;
22644;SDS011;11489;50.834;6.752;2023-06-22T03:36:00;5.20;;;3.80;;
22644;SDS011;11489;50.834;6.752;2023-06-22T03:38:26;6.63;;;4.10;;
22644;SDS011;11489;50.834;6.752;2023-06-22T03:40:52;4.20;;;3.80;;
22644;SDS011;11489;50.834;6.752;2023-06-22T03:43:18;5.47;;;3.70;;
22644;SDS011;11489;50.834;6.752;2023-06-22T03:45:44;4.97;;;3.72;;
22644;SDS011;11489;50.834;6.752;2023-06-22T03:48:10;5.53;;;4.00;;
22644;SDS011;11489;50.834;6.752;2023-06-22T03:50:37;6.55;;;4.45;;
22644;SDS011;11489;50.834;6.752;2023-06-22T03:53:02;4.70;;;4.03;;
22644;SDS011;11489;50.834;6.752;2023-06-22T03:55:28;6.00;;;4.57;;
22644;SDS011;11489;50.834;6.752;2023-06-22T03:57:54;4.78;;;4.13;;
22644;SDS011;11489;50.834;6.752;2023-06-22T04:00:22;7.00;;;4.30;;
22644;SDS011;11489;50.834;6.752;2023-06-22T04:02:48;5.10;;;4.40;;
22644;SDS011;11489;50.834;6.752;2023-06-22T04:05:14;5.18;;;4.50;;
22644;SDS011;11489;50.834;6.752;2023-06-22T04:07:42;4.80;;;4.30;;
22644;SDS011;11489;50.834;6.752;2023-06-22T04:10:08;4.72;;;4.20;;
22644;SDS011;11489;50.834;6.752;2023-06-22T04:12:34;5.95;;;4.65;;
22644;SDS011;11489;50.834;6.752;2023-06-22T04:14:59;4.95;;;4.35;;
22644;SDS011;11489;50.834;6.752;2023-06-22T04:17:25;5.80;;;4.65;;
22644;SDS011;11489;50.834;6.752;2023-06-22T04:19:51;8.82;;;4.60;;
22644;SDS011;11489;50.834;6.752;2023-06-22T04:22:17;5.47;;;4.38;;
22644;SDS011;11489;50.834;6.752;2023-06-22T04:24:43;8.48;;;4.43;;
22644;SDS011;11489;50.834;6.752;2023-06-22T04:27:09;6.70;;;4.40;;
22644;SDS011;11489;50.834;6.752;2023-06-22T04:29:35;5.72;;;4.65;;
22644;SDS011;11489;50.834;6.752;2023-06-22T04:32:01;6.07;;;4.38;;
22644;SDS011;11489;50.834;6.752;2023-06-22T04:34:30;6.28;;;4.18;;
22644;SDS011;11489;50.834;6.752;2023-06-22T04:36:56;7.88;;;4.60;;
22644;SDS011;11489;50.834;6.752;2023-06-22T04:39:23;7.63;;;4.13;;
22644;SDS011;11489;50.834;6.752;2023-06-22T04:41:49;7.10;;;3.90;;
22644;SDS011;11489;50.834;6.752;2023-06-22T04:44:19;5.18;;;3.97;;
22644;SDS011;11489;50.834;6.752;2023-06-22T04:46:57;6.53;;;4.20;;
22644;SDS011;11489;50.834;6.752;2023-06-22T04:49:28;6.63;;;4.07;;
22644;SDS011;11489;50.834;6.752;2023-06-22T04:52:01;4.68;;;3.60;;
22644;SDS011;11489;50.834;6.752;2023-06-22T04:54:29;7.40;;;4.13;;
22644;SDS011;11489;50.834;6.752;2023-06-22T04:56:58;5.70;;;4.07;;
22644;SDS011;11489;50.834;6.752;2023-06-22T04:59:26;6.32;;;4.07;;
22644;SDS011;11489;50.834;6.752;2023-06-22T05:01:58;6.22;;;4.95;;
22644;SDS011;11489;50.834;6.752;2023-06-22T05:04:26;5.55;;;4.47;;
22644;SDS011;11489;50.834;6.752;2023-06-22T05:06:53;4.80;;;4.22;;
22644;SDS011;11489;50.834;6.752;2023-06-22T05:09:19;5.82;;;4.45;;
22644;SDS011;11489;50.834;6.752;2023-06-22T05:11:46;5.60;;;4.47;;
22644;SDS011;11489;50.834;6.752;2023-06-22T05:14:12;11.23;;;4.90;;
22644;SDS011;11489;50.834;6.752;2023-06-22T05:16:43;6.82;;;4.47;;
22644;SDS011;11489;50.834;6.752;2023-06-22T05:19:09;4.45;;;3.92;;
22644;SDS011;11489;50.834;6.752;2023-06-22T05:21:37;7.82;;;4.25;;
22644;SDS011;11489;50.834;6.752;2023-06-22T05:24:03;5.32;;;4.10;;
22644;SDS011;11489;50.834;6.752;2023-06-22T05:26:29;5.72;;;4.28;;
22644;SDS011;11489;50.834;6.752;2023-06-22T05:28:56;6.00;;;4.28;;
22644;SDS011;11489;50.834;6.752;2023-06-22T05:31:25;5.75;;;4.40;;
22644;SDS011;11489;50.834;6.752;2023-06-22T05:33:55;5.32;;;4.53;;
22644;SDS011;11489;50.834;6.752;2023-06-22T05:36:21;6.03;;;4.30;;
22644;SDS011;11489;50.834;6.752;2023-06-22T05:38:58;4.85;;;4.35;;
22644;SDS011;11489;50.834;6.752;2023-06-22T05:41:24;5.22;;;4.38;;
22644;SDS011;11489;50.834;6.752;2023-06-22T05:43:50;7.65;;;4.10;;
22644;SDS011;11489;50.834;6.752;2023-06-22T05:46:16;5.20;;;4.10;;
22644;SDS011;11489;50.834;6.752;2023-06-22T05:48:42;5.13;;;4.40;;
22644;SDS011;11489;50.834;6.752;2023-06-22T05:51:07;6.90;;;4.78;;
22644;SDS011;11489;50.834;6.752;2023-06-22T05:53:33;6.28;;;4.15;;
22644;SDS011;11489;50.834;6.752;2023-06-22T05:55:59;5.38;;;4.38;;
22644;SDS011;11489;50.834;6.752;2023-06-22T05:58:24;6.90;;;4.30;;
22644;SDS011;11489;50.834;6.752;2023-06-22T06:00:50;6.40;;;4.13;;
22644;SDS011;11489;50.834;6.752;2023-06-22T06:03:16;4.88;;;3.83;;
22644;SDS011;11489;50.834;6.752;2023-06-22T06:05:42;6.72;;;4.07;;
22644;SDS011;11489;50.834;6.752;2023-06-22T06:08:08;5.57;;;4.20;;
22644;SDS011;11489;50.834;6.752;2023-06-22T06:10:36;6.68;;;3.83;;
22644;SDS011;11489;50.834;6.752;2023-06-22T06:13:02;5.82;;;4.60;;
22644;SDS011;11489;50.834;6.752;2023-06-22T06:15:29;8.52;;;4.63;;
22644;SDS011;11489;50.834;6.752;2023-06-22T06:17:59;6.85;;;4.60;;
22644;SDS011;11489;50.834;6.752;2023-06-22T06:20:25;7.28;;;4.53;;
22644;SDS011;11489;50.834;6.752;2023-06-22T06:22:53;6.47;;;4.60;;
22644;SDS011;11489;50.834;6.752;2023-06-22T06:25:18;6.88;;;4.22;;
22644;SDS011;11489;50.834;6.752;2023-06-22T06:27:47;7.30;;;4.43;;
22644;SDS011;11489;50.834;6.752;2023-06-22T06:30:14;6.00;;;4.65;;
22644;SDS011;11489;50.834;6.752;2023-06-22T06:32:41;5.80;;;4.70;;
22644;SDS011;11489;50.834;6.752;2023-06-22T06:35:08;7.22;;;5.10;;
22644;SDS011;11489;50.834;6.752;2023-06-22T06:37:38;8.30;;;5.55;;
22644;SDS011;11489;50.834;6.752;2023-06-22T06:40:08;7.40;;;5.50;;
22644;SDS011;11489;50.834;6.752;2023-06-22T06:42:45;6.55;;;5.50;;
22644;SDS011;11489;50.834;6.752;2023-06-22T06:45:14;6.45;;;5.53;;
22644;SDS011;11489;50.834;6.752;2023-06-22T06:47:41;7.28;;;6.07;;
22644;SDS011;11489;50.834;6.752;2023-06-22T06:50:07;7.25;;;6.03;;
22644;SDS011;11489;50.834;6.752;2023-06-22T06:52:34;7.05;;;5.70;;
22644;SDS011;11489;50.834;6.752;2023-06-22T06:55:00;6.00;;;5.40;;
22644;SDS011;11489;50.834;6.752;2023-06-22T06:57:25;6.35;;;5.72;;
22644;SDS011;11489;50.834;6.752;2023-06-22T06:59:55;6.70;;;5.63;;
22644;SDS011;11489;50.834;6.752;2023-06-22T07:02:22;6.43;;;5.68;;
22644;SDS011;11489;50.834;6.752;2023-06-22T07:04:48;7.78;;;6.40;;
22644;SDS011;11489;50.834;6.752;2023-06-22T07:07:14;8.23;;;6.70;;
22644;SDS011;11489;50.834;6.752;2023-06-22T07:09:40;7.10;;;6.40;;
22644;SDS011;11489;50.834;6.752;2023-06-22T07:12:06;8.20;;;6.53;;
22644;SDS011;11489;50.834;6.752;2023-06-22T07:14:32;6.90;;;5.50;;
22644;SDS011;11489;50.834;6.752;2023-06-22T07:16:58;9.20;;;6.63;;
22644;SDS011;11489;50.834;6.752;2023-06-22T07:19:27;8.10;;;6.70;;
22644;SDS011;11489;50.834;6.752;2023-06-22T07:21:53;10.77;;;6.32;;
22644;SDS011;11489;50.834;6.752;2023-06-22T07:24:20;13.40;;;6.75;;
22644;SDS011;11489;50.834;6.752;2023-06-22T07:26:49;12.57;;;7.20;;
22644;SDS011;11489;50.834;6.752;2023-06-22T07:29:16;10.43;;;7.05;;
22644;SDS011;11489;50.834;6.752;2023-06-22T07:31:42;12.95;;;7.63;;
22644;SDS011;11489;50.834;6.752;2023-06-22T07:34:08;13.95;;;8.50;;
22644;SDS011;11489;50.834;6.752;2023-06-22T07:36:33;10.93;;;7.60;;
22644;SDS011;11489;50.834;6.752;2023-06-22T07:39:01;9.80;;;7.40;;
22644;SDS011;11489;50.834;6.752;2023-06-22T07:41:28;10.05;;;7.93;;
22644;SDS011;11489;50.834;6.752;2023-06-22T07:43:53;11.70;;;7.95;;
22644;SDS011;11489;50.834;6.752;2023-06-22T07:46:19;8.30;;;7.38;;
22644;SDS011;11489;50.834;6.752;2023-06-22T07:48:45;11.43;;;8.38;;
22644;SDS011;11489;50.834;6.752;2023-06-22T07:51:10;10.52;;;7.28;;
22644;SDS011;11489;50.834;6.752;2023-06-22T07:53:40;8.85;;;7.45;;
22644;SDS011;11489;50.834;6.752;2023-06-22T07:56:06;11.52;;;8.02;;
22644;SDS011;11489;50.834;6.752;2023-06-22T07:58:32;8.57;;;7.75;;
22644;SDS011;11489;50.834;6.752;2023-06-22T08:00:58;9.70;;;8.55;;
22644;SDS011;11489;50.834;6.752;2023-06-22T08:03:24;11.95;;;8.98;;
22644;SDS011;11489;50.834;6.752;2023-06-22T08:05:50;9.98;;;8.65;;
22644;SDS011;11489;50.834;6.752;2023-06-22T08:08:15;8.00;;;7.10;;
22644;SDS011;11489;50.834;6.752;2023-06-22T08:10:41;9.38;;;8.23;;
22644;SDS011;11489;50.834;6.752;2023-06-22T08:13:07;11.02;;;8.10;;
22644;SDS011;11489;50.834;6.752;2023-06-22T08:15:33;9.68;;;7.30;;
22644;SDS011;11489;50.834;6.752;2023-06-22T08:17:59;8.90;;;6.90;;
22644;SDS011;11489;50.834;6.752;2023-06-22T08:20:25;8.80;;;6.65;;
22644;SDS011;11489;50.834;6.752;2023-06-22T08:22:53;8.20;;;7.30;;
22644;SDS011;11489;50.834;6.752;2023-06-22T08:25:19;7.38;;;6.65;;
22644;SDS011;11489;50.834;6.752;2023-06-22T08:27:47;8.27;;;6.65;;
22644;SDS011;11489;50.834;6.752;2023-06-22T08:30:13;7.70;;;6.57;;
22644;SDS011;11489;50.834;6.752;2023-06-22T08:32:39;6.68;;;6.05;;
22644;SDS011;11489;50.834;6.752;2023-06-22T08:35:05;9.68;;;6.97;;
22644;SDS011;11489;50.834;6.752;2023-06-22T08:37:33;6.47;;;5.82;;
22644;SDS011;11489;50.834;6.752;2023-06-22T08:40:01;10.07;;;5.90;;
22644;SDS011;11489;50.834;6.752;2023-06-22T08:42:33;7.20;;;6.50;;
22644;SDS011;11489;50.834;6.752;2023-06-22T08:44:59;7.35;;;5.68;;
22644;SDS011;11489;50.834;6.752;2023-06-22T08:47:25;6.30;;;5.70;;
22644;SDS011;11489;50.834;6.752;2023-06-22T08:49:52;7.30;;;6.30;;
22644;SDS011;11489;50.834;6.752;2023-06-22T08:52:18;7.57;;;5.97;;
22644;SDS011;11489;50.834;6.752;2023-06-22T08:54:45;7.60;;;5.70;;
22644;SDS011;11489;50.834;6.752;2023-06-22T08:57:11;6.60;;;6.00;;
22644;SDS011;11489;50.834;6.752;2023-06-22T08:59:36;8.00;;;6.30;;
22644;SDS011;11489;50.834;6.752;2023-06-22T09:02:02;6.55;;;5.82;;
22644;SDS011;11489;50.834;6.752;2023-06-22T09:04:28;6.00;;;5.40;;
22644;SDS011;11489;50.834;6.752;2023-06-22T09:06:53;6.78;;;6.07;;
22644;SDS011;11489;50.834;6.752;2023-06-22T09:09:20;7.53;;;5.80;;
22644;SDS011;11489;50.834;6.752;2023-06-22T09:11:46;7.45;;;5.88;;
22644;SDS011;11489;50.834;6.752;2023-06-22T09:14:12;7.07;;;6.10;;
22644;SDS011;11489;50.834;6.752;2023-06-22T09:16:38;6.57;;;5.93;;
22644;SDS011;11489;50.834;6.752;2023-06-22T09:19:04;6.47;;;5.88;;
22644;SDS011;11489;50.834;6.752;2023-06-22T09:21:29;6.65;;;5.97;;
22644;SDS011;11489;50.834;6.752;2023-06-22T09:23:58;6.93;;;6.20;;
22644;SDS011;11489;50.834;6.752;2023-06-22T09:26:24;7.03;;;6.32;;
22644;SDS011;11489;50.834;6.752;2023-06-22T09:28:49;6.60;;;5.90;;
22644;SDS011;11489;50.834;6.752;2023-06-22T09:31:15;7.03;;;6.32;;
22644;SDS011;11489;50.834;6.752;2023-06-22T09:33:42;6.93;;;6.18;;
22644;SDS011;11489;50.834;6.752;2023-06-22T09:36:08;7.20;;;6.03;;
22644;SDS011;11489;50.834;6.752;2023-06-22T09:38:34;7.80;;;6.60;;
22644;SDS011;11489;50.834;6.752;2023-06-22T09:41:03;7.32;;;6.35;;
22644;SDS011;11489;50.834;6.752;2023-06-22T09:43:30;7.65;;;6.75;;
22644;SDS011;11489;50.834;6.752;2023-06-22T09:45:57;7.78;;;7.00;;
22644;SDS011;11489;50.834;6.752;2023-06-22T09:48:23;8.48;;;6.10;;
22644;SDS011;11489;50.834;6.752;2023-06-22T09:50:49;6.47;;;5.85;;
22644;SDS011;11489;50.834;6.752;2023-06-22T09:53:14;8.40;;;5.60;;
22644;SDS011;11489;50.834;6.752;2023-06-22T09:55:40;7.30;;;6.18;;
22644;SDS011;11489;50.834;6.752;2023-06-22T09:58:06;11.30;;;5.93;;
22644;SDS011;11489;50.834;6.752;2023-06-22T10:00:31;6.60;;;6.00;;
22644;SDS011;11489;50.834;6.752;2023-06-22T10:02:57;5.85;;;5.35;;
22644;SDS011;11489;50.834;6.752;2023-06-22T10:05:23;6.43;;;5.78;;
22644;SDS011;11489;50.834;6.752;2023-06-22T10:07:49;7.18;;;6.00;;
22644;SDS011;11489;50.834;6.752;2023-06-22T10:10:15;8.77;;;6.18;;
22644;SDS011;11489;50.834;6.752;2023-06-22T10:12:43;6.38;;;5.78;;
22644;SDS011;11489;50.834;6.752;2023-06-22T10:15:14;7.68;;;5.68;;
22644;SDS011;11489;50.834;6.752;2023-06-22T10:17:40;7.10;;;5.97;;
22644;SDS011;11489;50.834;6.752;2023-06-22T10:20:06;6.53;;;5.93;;
22644;SDS011;11489;50.834;6.752;2023-06-22T10:22:41;9.82;;;6.18;;
22644;SDS011;11489;50.834;6.752;2023-06-22T10:25:08;8.40;;;6.70;;
22644;SDS011;11489;50.834;6.752;2023-06-22T10:27:35;8.40;;;6.57;;
22644;SDS011;11489;50.834;6.752;2023-06-22T10:30:01;10.85;;;6.60;;
22644;SDS011;11489;50.834;6.752;2023-06-22T10:32:27;9.73;;;7.45;;
22644;SDS011;11489;50.834;6.752;2023-06-22T10:34:56;10.38;;;7.45;;
22644;SDS011;11489;50.834;6.752;2023-06-22T10:37:21;9.95;;;7.50;;
22644;SDS011;11489;50.834;6.752;2023-06-22T10:39:47;8.73;;;7.68;;
22644;SDS011;11489;50.834;6.752;2023-06-22T10:42:14;9.55;;;7.50;;
22644;SDS011;11489;50.834;6.752;2023-06-22T10:44:39;10.23;;;7.85;;
22644;SDS011;11489;50.834;6.752;2023-06-22T10:47:06;8.73;;;7.38;;
22644;SDS011;11489;50.834;6.752;2023-06-22T10:49:32;10.30;;;7.90;;
22644;SDS011;11489;50.834;6.752;2023-06-22T10:51:58;9.93;;;8.07;;
22644;SDS011;11489;50.834;6.752;2023-06-22T10:54:23;10.80;;;7.85;;
22644;SDS011;11489;50.834;6.752;2023-06-22T10:56:49;9.30;;;7.97;;
22644;SDS011;11489;50.834;6.752;2023-06-22T10:59:15;8.77;;;7.82;;
22644;SDS011;11489;50.834;6.752;2023-06-22T11:01:41;9.90;;;8.30;;
22644;SDS011;11489;50.834;6.752;2023-06-22T11:04:07;9.48;;;8.48;;
22644;SDS011;11489;50.834;6.752;2023-06-22T11:06:33;11.95;;;8.48;;
22644;SDS011;11489;50.834;6.752;2023-06-22T11:08:58;11.57;;;8.88;;
22644;SDS011;11489;50.834;6.752;2023-06-22T11:11:25;13.55;;;8.65;;
22644;SDS011;11489;50.834;6.752;2023-06-22T11:13:52;13.40;;;8.93;;
22644;SDS011;11489;50.834;6.752;2023-06-22T11:16:18;12.77;;;9.60;;
22644;SDS011;11489;50.834;6.752;2023-06-22T11:18:43;13.00;;;9.88;;
22644;SDS011;11489;50.834;6.752;2023-06-22T11:21:09;13.45;;;9.82;;
22644;SDS011;11489;50.834;6.752;2023-06-22T11:23:35;12.98;;;10.27;;
22644;SDS011;11489;50.834;6.752;2023-06-22T11:26:00;11.80;;;10.38;;
22644;SDS011;11489;50.834;6.752;2023-06-22T11:28:26;14.15;;;11.38;;
22644;SDS011;11489;50.834;6.752;2023-06-22T11:30:52;14.02;;;10.60;;
22644;SDS011;11489;50.834;6.752;2023-06-22T11:33:18;12.95;;;9.63;;
22644;SDS011;11489;50.834;6.752;2023-06-22T11:35:44;12.25;;;10.88;;
22644;SDS011;11489;50.834;6.752;2023-06-22T11:38:09;12.02;;;10.27;;
22644;SDS011;11489;50.834;6.752;2023-06-22T11:40:35;13.30;;;10.70;;
22644;SDS011;11489;50.834;6.752;2023-06-22T11:43:00;10.68;;;9.45;;
22644;SDS011;11489;50.834;6.752;2023-06-22T11:45:26;10.95;;;9.75;;
22644;SDS011;11489;50.834;6.752;2023-06-22T11:47:52;11.63;;;10.27;;
22644;SDS011;11489;50.834;6.752;2023-06-22T11:50:18;13.98;;;11.07;;
22644;SDS011;11489;50.834;6.752;2023-06-22T11:52:43;12.82;;;11.48;;
22644;SDS011;11489;50.834;6.752;2023-06-22T11:55:09;14.02;;;12.05;;
22644;SDS011;11489;50.834;6.752;2023-06-22T11:57:38;12.75;;;11.30;;
22644;SDS011;11489;50.834;6.752;2023-06-22T12:00:16;15.43;;;12.07;;
22644;SDS011;11489;50.834;6.752;2023-06-22T12:02:43;13.20;;;11.45;;
22644;SDS011;11489;50.834;6.752;2023-06-22T12:05:10;14.18;;;11.45;;
22644;SDS011;11489;50.834;6.752;2023-06-22T12:07:36;15.38;;;11.50;;
22644;SDS011;11489;50.834;6.752;2023-06-22T12:10:02;13.45;;;11.30;;
22644;SDS011;11489;50.834;6.752;2023-06-22T12:12:28;14.40;;;11.73;;
22644;SDS011;11489;50.834;6.752;2023-06-22T12:14:54;14.05;;;12.05;;
22644;SDS011;11489;50.834;6.752;2023-06-22T12:17:20;15.18;;;13.38;;
22644;SDS011;11489;50.834;6.752;2023-06-22T12:19:46;13.93;;;12.02;;
22644;SDS011;11489;50.834;6.752;2023-06-22T12:22:11;15.52;;;12.95;;
22644;SDS011;11489;50.834;6.752;2023-06-22T12:24:37;16.27;;;12.55;;
22644;SDS011;11489;50.834;6.752;2023-06-22T12:27:03;14.18;;;11.80;;
22644;SDS011;11489;50.834;6.752;2023-06-22T12:29:29;12.50;;;11.20;;
22644;SDS011;11489;50.834;6.752;2023-06-22T12:31:55;11.52;;;10.32;;
22644;SDS011;11489;50.834;6.752;2023-06-22T12:34:20;11.48;;;10.27;;
22644;SDS011;11489;50.834;6.752;2023-06-22T12:36:46;11.65;;;10.45;;
22644;SDS011;11489;50.834;6.752;2023-06-22T12:39:15;15.18;;;11.90;;
22644;SDS011;11489;50.834;6.752;2023-06-22T12:41:40;13.10;;;11.57;;
22644;SDS011;11489;50.834;6.752;2023-06-22T12:44:06;11.90;;;10.68;;
22644;SDS011;11489;50.834;6.752;2023-06-22T12:46:32;13.00;;;10.73;;
22644;SDS011;11489;50.834;6.752;2023-06-22T12:49:02;10.98;;;9.77;;
22644;SDS011;11489;50.834;6.752;2023-06-22T12:51:29;12.23;;;10.20;;
22644;SDS011;11489;50.834;6.752;2023-06-22T12:53:55;12.30;;;11.02;;
22644;SDS011;11489;50.834;6.752;2023-06-22T12:56:21;13.00;;;10.23;;
22644;SDS011;11489;50.834;6.752;2023-06-22T12:58:47;15.13;;;12.18;;
22644;SDS011;11489;50.834;6.752;2023-06-22T13:01:13;13.13;;;11.73;;
22644;SDS011;11489;50.834;6.752;2023-06-22T13:03:39;14.43;;;11.38;;
22644;SDS011;11489;50.834;6.752;2023-06-22T13:06:05;13.98;;;12.50;;
22644;SDS011;11489;50.834;6.752;2023-06-22T13:08:34;14.13;;;12.68;;
22644;SDS011;11489;50.834;6.752;2023-06-22T13:10:59;15.32;;;13.73;;
22644;SDS011;11489;50.834;6.752;2023-06-22T13:13:25;14.23;;;12.52;;
22644;SDS011;11489;50.834;6.752;2023-06-22T13:15:52;14.48;;;11.80;;
22644;SDS011;11489;50.834;6.752;2023-06-22T13:18:19;13.18;;;11.73;;
22644;SDS011;11489;50.834;6.752;2023-06-22T13:20:44;12.90;;;11.23;;
22644;SDS011;11489;50.834;6.752;2023-06-22T13:23:11;14.50;;;12.27;;
22644;SDS011;11489;50.834;6.752;2023-06-22T13:25:36;12.43;;;11.13;;
22644;SDS011;11489;50.834;6.752;2023-06-22T13:28:02;13.98;;;11.52;;
22644;SDS011;11489;50.834;6.752;2023-06-22T13:30:28;12.10;;;10.90;;
22644;SDS011;11489;50.834;6.752;2023-06-22T13:32:54;13.35;;;11.75;;
22644;SDS011;11489;50.834;6.752;2023-06-22T13:35:20;12.93;;;11.15;;
22644;SDS011;11489;50.834;6.752;2023-06-22T13:37:46;12.15;;;10.95;;
22644;SDS011;11489;50.834;6.752;2023-06-22T13:40:11;13.18;;;9.98;;
22644;SDS011;11489;50.834;6.752;2023-06-22T13:42:37;10.75;;;9.65;;
22644;SDS011;11489;50.834;6.752;2023-06-22T13:45:03;10.10;;;9.05;;
22644;SDS011;11489;50.834;6.752;2023-06-22T13:47:32;10.32;;;9.23;;
22644;SDS011;11489;50.834;6.752;2023-06-22T13:49:58;10.77;;;9.68;;
22644;SDS011;11489;50.834;6.752;2023-06-22T13:52:24;11.40;;;9.77;;
22644;SDS011;11489;50.834;6.752;2023-06-22T13:54:50;9.15;;;7.88;;
22644;SDS011;11489;50.834;6.752;2023-06-22T13:57:15;9.57;;;8.40;;
22644;SDS011;11489;50.834;6.752;2023-06-22T13:59:41;11.18;;;8.07;;
22644;SDS011;11489;50.834;6.752;2023-06-22T14:02:07;12.18;;;9.18;;
22644;SDS011;11489;50.834;6.752;2023-06-22T14:04:33;8.90;;;8.00;;
22644;SDS011;11489;50.834;6.752;2023-06-22T14:07:01;10.63;;;8.90;;
22644;SDS011;11489;50.834;6.752;2023-06-22T14:09:27;9.77;;;8.48;;
22644;SDS011;11489;50.834;6.752;2023-06-22T14:11:53;9.38;;;7.95;;
22644;SDS011;11489;50.834;6.752;2023-06-22T14:14:20;9.48;;;8.48;;
22644;SDS011;11489;50.834;6.752;2023-06-22T14:16:46;8.75;;;7.93;;
22644;SDS011;11489;50.834;6.752;2023-06-22T14:19:12;10.65;;;7.32;;
22644;SDS011;11489;50.834;6.752;2023-06-22T14:21:38;8.20;;;7.32;;
22644;SDS011;11489;50.834;6.752;2023-06-22T14:24:04;7.65;;;6.78;;
22644;SDS011;11489;50.834;6.752;2023-06-22T14:26:30;10.90;;;6.57;;
22644;SDS011;11489;50.834;6.752;2023-06-22T14:28:55;7.53;;;6.63;;
22644;SDS011;11489;50.834;6.752;2023-06-22T14:31:21;9.25;;;7.00;;
22644;SDS011;11489;50.834;6.752;2023-06-22T14:33:48;7.10;;;5.80;;
22644;SDS011;11489;50.834;6.752;2023-06-22T14:36:15;6.65;;;5.93;;
22644;SDS011;11489;50.834;6.752;2023-06-22T14:38:42;7.65;;;5.68;;
22644;SDS011;11489;50.834;6.752;2023-06-22T14:41:08;6.15;;;5.55;;